TAF KBCE
AMD KBCE 080250Z 0803/0824 15006KT P6SM SCT010 BKN020 FM080500 29006KT P6SM SCT010 SCT020 FM081100 VRB05KT 6SM -SN BKN010 OVC030 FM081400 VRB05KT P6SM OVC010 FM081800 21015G25KT P6SM SCT010 BKN060=
METAR KBCE
WC KBCE
WS KBCE
WV KBCE